createdAt,value
2022-12-08T08:33:48.742Z,15.70
2022-12-08T08:36:15.178Z,13.07
2022-12-08T08:38:43.785Z,13.35
2022-12-08T08:43:53.950Z,16.90
2022-12-08T08:46:25.869Z,14.65
2022-12-08T08:49:07.388Z,15.05
2022-12-08T08:51:34.063Z,14.68
2022-12-08T08:54:00.721Z,11.25
2022-12-08T08:56:27.190Z,13.18
2022-12-08T08:58:53.945Z,14.90
2022-12-08T09:01:25.461Z,11.07
2022-12-08T09:03:52.434Z,13.30
2022-12-08T09:06:19.206Z,10.02
2022-12-08T09:08:46.459Z,11.18
2022-12-08T09:11:13.562Z,12.70
2022-12-08T09:13:40.445Z,12.70
2022-12-08T09:16:08.552Z,14.68
2022-12-08T09:18:35.344Z,14.65
2022-12-08T09:21:16.755Z,12.05
2022-12-08T09:23:43.962Z,10.65
2022-12-08T09:26:10.552Z,12.52
2022-12-08T09:28:37.806Z,13.02
2022-12-08T09:31:04.648Z,12.00
2022-12-08T09:33:31.696Z,11.27
2022-12-08T09:36:02.271Z,8.65
2022-12-08T09:38:28.760Z,11.70
2022-12-08T09:40:55.280Z,10.25
2022-12-08T09:43:43.347Z,10.02
2022-12-08T09:46:13.279Z,11.90
2022-12-08T09:48:46.380Z,9.23
2022-12-08T09:51:15.566Z,9.27
2022-12-08T09:53:48.382Z,13.80
2022-12-08T09:56:24.968Z,11.52
2022-12-08T12:09:49.111Z,7.10
2022-12-08T12:31:48.638Z,6.40
2022-12-08T12:34:36.435Z,6.88
2022-12-08T12:37:29.029Z,5.57
2022-12-08T12:40:02.481Z,6.57
2022-12-08T12:42:45.900Z,5.68
2022-12-08T12:45:12.782Z,10.55
2022-12-08T12:47:56.396Z,6.40
2022-12-08T12:50:58.965Z,5.93
2022-12-08T12:55:56.995Z,6.95
2022-12-08T12:58:36.551Z,6.78
2022-12-08T13:01:13.094Z,6.38
2022-12-08T13:03:45.824Z,5.55
2022-12-08T13:06:15.443Z,6.55
2022-12-08T13:08:51.036Z,5.60
2022-12-08T13:11:17.886Z,6.28
2022-12-08T13:14:04.840Z,7.30
2022-12-08T13:16:34.516Z,8.43
2022-12-08T13:19:05.868Z,8.10
2022-12-08T13:21:37.278Z,6.22
2022-12-08T13:24:24.248Z,8.10
2022-12-08T13:27:10.973Z,7.22
2022-12-08T13:29:39.204Z,9.10
2022-12-08T13:34:49.157Z,6.35
2022-12-08T13:37:52.428Z,7.75
2022-12-08T13:40:25.581Z,6.70
2022-12-08T13:43:25.985Z,6.20
2022-12-08T13:50:42.601Z,5.60
2022-12-08T13:55:26.955Z,9.73
2022-12-08T13:57:43.278Z,6.93
2022-12-08T20:31:29.814Z,12.20
2022-12-08T20:33:56.359Z,12.00
2022-12-08T20:36:23.207Z,11.40
2022-12-08T20:38:52.094Z,12.05
2022-12-08T20:41:19.357Z,12.18
2022-12-08T20:43:47.366Z,13.23
2022-12-08T20:46:16.857Z,15.02
2022-12-08T20:48:44.539Z,13.45
2022-12-08T20:51:16.443Z,10.88
2022-12-08T20:53:43.376Z,15.18
2022-12-08T20:56:17.929Z,19.67
2022-12-08T20:58:47.929Z,17.50
2022-12-08T21:01:25.611Z,16.20
2022-12-08T21:03:53.679Z,15.98
2022-12-08T21:06:25.107Z,13.82
2022-12-08T21:08:51.831Z,14.60
2022-12-08T21:11:20.366Z,9.60
2022-12-08T21:13:50.020Z,13.05
2022-12-08T21:16:16.817Z,11.68
2022-12-08T21:21:43.577Z,9.32
